createdAt,value
2023-04-03T00:01:00.528Z,11.63
2023-04-03T00:06:03.281Z,7.30
2023-04-03T00:11:06.435Z,6.75
2023-04-03T00:16:10.826Z,7.80
2023-04-03T00:21:14.604Z,12.85
2023-04-03T00:26:17.311Z,13.18
2023-04-03T00:31:20.110Z,11.67
2023-04-03T00:36:22.763Z,11.43
2023-04-03T00:41:25.385Z,11.67
2023-04-03T00:46:27.889Z,20.20
2023-04-03T00:51:30.578Z,11.27
2023-04-03T00:56:33.853Z,10.33
2023-04-03T01:01:37.693Z,9.30
2023-04-03T01:11:44.402Z,9.82
2023-04-03T01:16:56.734Z,11.75
2023-04-03T01:22:33.300Z,17.93
2023-04-03T01:27:35.836Z,22.15
2023-04-03T01:32:38.565Z,24.30
2023-04-03T01:37:41.254Z,19.38
2023-04-03T01:42:43.933Z,13.75
2023-04-03T01:47:46.539Z,18.93
2023-04-03T01:52:49.212Z,10.45
2023-04-03T01:57:52.002Z,6.87
2023-04-03T02:02:54.886Z,4.35
2023-04-03T02:07:58.870Z,3.13
2023-04-03T02:13:01.435Z,3.17
2023-04-03T02:18:07.792Z,3.08
2023-04-03T02:23:11.291Z,3.43
2023-04-03T02:28:13.910Z,4.50
2023-04-03T02:33:16.634Z,9.48
2023-04-03T02:38:19.812Z,9.17
2023-04-03T02:43:22.594Z,10.02
2023-04-03T02:48:25.571Z,10.57
2023-04-03T02:53:30.361Z,13.18
2023-04-03T02:58:34.091Z,15.82
2023-04-03T03:03:38.206Z,15.30
2023-04-03T03:08:41.282Z,13.75
2023-04-03T03:13:43.757Z,11.67
2023-04-03T03:18:46.742Z,9.18
2023-04-03T03:23:49.376Z,4.55
2023-04-03T03:28:52.103Z,4.87
2023-04-03T03:33:54.857Z,5.93
2023-04-03T03:38:58.942Z,6.17
2023-04-03T03:44:01.707Z,3.72
2023-04-03T03:49:07.044Z,3.58
2023-04-03T03:54:11.097Z,2.80
2023-04-03T03:59:14.437Z,3.40
2023-04-03T04:04:20.403Z,2.37
2023-04-03T04:09:24.426Z,2.13
2023-04-03T04:14:27.761Z,2.40
2023-04-03T04:19:31.095Z,2.30
2023-04-03T04:24:34.443Z,2.97
2023-04-03T04:29:39.081Z,2.70
2023-04-03T04:34:44.094Z,3.13
2023-04-03T04:39:47.483Z,2.67
2023-04-03T04:44:51.514Z,3.60
2023-04-03T04:49:54.579Z,3.40
2023-04-03T04:54:57.663Z,5.00
2023-04-03T05:00:01.023Z,3.50
2023-04-03T05:05:08.679Z,3.42
2023-04-03T05:10:11.767Z,3.63
2023-04-03T05:15:18.264Z,4.03
2023-04-03T05:20:22.386Z,4.50
2023-04-03T05:25:27.242Z,3.80
2023-04-03T05:30:31.937Z,3.75
2023-04-03T05:35:38.180Z,3.33
2023-04-03T05:40:43.833Z,3.92
2023-04-03T05:45:49.241Z,3.60
2023-04-03T05:50:57.142Z,4.30
2023-04-03T05:56:02.300Z,3.72
2023-04-03T06:01:09.100Z,4.20
2023-04-03T06:06:15.527Z,3.72
2023-04-03T06:11:18.526Z,4.00
2023-04-03T06:16:21.658Z,3.87
2023-04-03T06:21:24.204Z,4.38
2023-04-03T06:26:26.879Z,3.30
2023-04-03T06:31:30.008Z,4.10
2023-04-03T06:36:33.029Z,2.83
2023-04-03T06:41:38.131Z,3.63
2023-04-03T06:46:41.134Z,4.85
2023-04-03T06:51:43.790Z,4.57
2023-04-03T06:56:46.513Z,3.00
2023-04-03T07:01:50.264Z,3.95
2023-04-03T07:06:53.667Z,4.43
2023-04-03T07:11:56.104Z,4.40
2023-04-03T07:16:58.683Z,3.88
2023-04-03T07:22:04.653Z,4.18
2023-04-03T07:27:07.278Z,4.07
2023-04-03T07:32:10.003Z,4.18
2023-04-03T07:37:12.982Z,5.30
2023-04-03T07:42:15.513Z,4.80
2023-04-03T07:47:19.342Z,4.43
2023-04-03T07:52:21.910Z,3.55
2023-04-03T07:57:24.704Z,4.27
2023-04-03T08:02:28.173Z,3.42
2023-04-03T08:07:30.931Z,5.20
2023-04-03T08:12:33.606Z,5.37
2023-04-03T08:17:37.185Z,4.18
2023-04-03T08:22:39.728Z,4.57
2023-04-03T08:27:42.307Z,3.60
2023-04-03T08:32:45.683Z,4.43
2023-04-03T08:37:48.230Z,3.65
2023-04-03T08:43:11.877Z,3.88
2023-04-03T08:48:20.691Z,3.60
2023-04-03T08:53:28.104Z,4.25
2023-04-03T08:58:33.408Z,3.35
2023-04-03T09:03:41.156Z,2.27
2023-04-03T09:09:12.115Z,3.15
2023-04-03T09:14:23.490Z,3.10
2023-04-03T09:19:53.367Z,2.90
2023-04-03T09:25:05.232Z,3.03
2023-04-03T09:30:14.355Z,2.95
2023-04-03T09:35:46.754Z,3.25
2023-04-03T09:41:02.839Z,2.37
2023-04-03T09:46:35.077Z,3.05
2023-04-03T09:51:38.595Z,3.38
2023-04-03T09:56:41.497Z,3.63
2023-04-03T10:01:58.293Z,2.92
2023-04-03T10:07:01.056Z,2.42
2023-04-03T10:12:11.636Z,3.57
2023-04-03T10:17:28.387Z,2.87
2023-04-03T10:22:41.910Z,3.30
2023-04-03T10:27:54.494Z,3.40
2023-04-03T10:33:21.210Z,3.73
2023-04-03T10:38:34.851Z,4.00
2023-04-03T10:44:26.667Z,3.20
2023-04-03T10:49:35.100Z,4.23
2023-04-03T10:54:47.413Z,3.95
2023-04-03T10:59:55.345Z,3.47
2023-04-03T11:05:28.123Z,3.63
2023-04-03T11:10:46.130Z,3.97
2023-04-03T11:15:49.723Z,3.80
2023-04-03T11:21:44.473Z,4.55
2023-04-03T11:26:47.545Z,5.07
2023-04-03T11:31:59.466Z,4.38
2023-04-03T11:37:06.390Z,3.85
2023-04-03T11:42:34.854Z,4.00
2023-04-03T11:47:51.157Z,4.70
2023-04-03T11:52:53.702Z,4.88
2023-04-03T11:57:59.240Z,4.03
2023-04-03T12:03:02.272Z,6.40
2023-04-03T12:08:25.740Z,4.25
2023-04-03T12:13:28.234Z,3.67
2023-04-03T12:18:42.843Z,3.60
2023-04-03T12:24:09.620Z,3.97
2023-04-03T12:29:35.314Z,4.75
2023-04-03T12:34:57.046Z,4.50
2023-04-03T12:40:08.614Z,5.07
2023-04-03T12:45:21.986Z,5.25
2023-04-03T12:50:34.141Z,5.60
2023-04-03T12:55:36.808Z,5.00
2023-04-03T13:00:40.906Z,5.25
2023-04-03T13:05:46.845Z,5.05
2023-04-03T13:10:57.494Z,4.90
2023-04-03T13:16:00.274Z,4.50
2023-04-03T13:21:16.834Z,5.38
2023-04-03T13:26:22.752Z,4.50
2023-04-03T13:31:29.261Z,4.60
2023-04-03T13:36:41.815Z,4.32
2023-04-03T13:41:47.970Z,4.10
2023-04-03T13:46:56.408Z,4.63
2023-04-03T13:52:07.143Z,4.22
2023-04-03T13:57:17.159Z,4.32
2023-04-03T14:02:34.841Z,3.83
2023-04-03T14:07:39.205Z,4.07
2023-04-03T14:12:41.947Z,3.50
2023-04-03T14:17:44.714Z,4.70
2023-04-03T14:22:48.336Z,3.30
2023-04-03T14:27:52.909Z,4.07
2023-04-03T14:32:56.229Z,3.43
2023-04-03T14:37:58.942Z,2.93
2023-04-03T14:43:02.640Z,3.50
2023-04-03T14:48:05.511Z,3.80
2023-04-03T14:53:08.946Z,3.37
2023-04-03T14:58:16.792Z,4.20
2023-04-03T15:03:23.459Z,2.90
2023-04-03T15:08:30.880Z,3.83
2023-04-03T15:13:33.366Z,4.47
2023-04-03T15:18:39.522Z,3.45
2023-04-03T15:23:43.209Z,4.40
2023-04-03T15:28:46.520Z,3.70
2023-04-03T15:33:49.074Z,3.63
2023-04-03T15:38:51.785Z,4.72
2023-04-03T15:43:54.309Z,3.87
2023-04-03T15:48:56.981Z,4.93
2023-04-03T15:53:59.432Z,4.78
2023-04-03T15:59:02.291Z,5.50
2023-04-03T16:04:06.269Z,7.70
2023-04-03T16:09:09.315Z,6.65
2023-04-03T16:14:14.695Z,5.80
2023-04-03T16:19:17.570Z,6.60
2023-04-03T16:24:20.050Z,6.32
2023-04-03T16:29:22.601Z,6.47
2023-04-03T16:34:26.930Z,6.30
2023-04-03T16:39:29.415Z,6.22
2023-04-03T16:44:31.978Z,5.45
2023-04-03T16:49:35.666Z,5.13
2023-04-03T16:54:38.240Z,5.10
2023-04-03T16:59:40.776Z,3.88
2023-04-03T17:04:43.461Z,4.27
2023-04-03T17:09:46.068Z,5.30
2023-04-03T17:14:51.825Z,4.03
2023-04-03T17:19:56.074Z,4.87
2023-04-03T17:24:59.722Z,5.13
2023-04-03T17:30:02.247Z,4.78
2023-04-03T17:35:06.163Z,4.38
2023-04-03T17:40:09.611Z,4.37
2023-04-03T17:45:12.270Z,4.72
2023-04-03T17:50:16.628Z,4.53
2023-04-03T17:55:19.296Z,4.43
2023-04-03T18:00:21.998Z,4.05
2023-04-03T18:05:28.921Z,3.70
2023-04-03T18:10:31.770Z,4.27
2023-04-03T18:15:34.480Z,3.55
2023-04-03T18:20:37.303Z,4.10
2023-04-03T18:25:40.028Z,3.80
2023-04-03T18:30:43.251Z,4.35
2023-04-03T18:35:45.901Z,4.30
2023-04-03T18:40:50.332Z,3.73
2023-04-03T18:45:53.604Z,3.47
2023-04-03T18:50:59.476Z,3.40
2023-04-03T18:56:03.689Z,4.00
2023-04-03T19:01:07.205Z,3.22
2023-04-03T19:06:09.780Z,3.10
2023-04-03T19:11:12.171Z,3.57
2023-04-03T19:21:38.732Z,3.67
2023-04-03T19:26:42.977Z,4.23
2023-04-03T19:31:45.556Z,5.70
2023-04-03T19:36:48.347Z,4.00
2023-04-03T19:41:51.113Z,4.27
2023-04-03T19:46:53.627Z,4.38
2023-04-03T19:51:56.464Z,4.40
2023-04-03T19:56:59.146Z,3.87
2023-04-03T20:02:01.852Z,4.72
2023-04-03T20:07:04.546Z,4.37
2023-04-03T20:12:09.768Z,4.30
2023-04-03T20:17:15.819Z,4.30
2023-04-03T20:22:18.184Z,4.97
2023-04-03T20:27:20.956Z,4.73
2023-04-03T20:32:24.266Z,4.72
2023-04-03T20:37:28.162Z,4.57
2023-04-03T20:42:30.741Z,4.07
2023-04-03T20:47:33.406Z,4.03
2023-04-03T20:52:36.896Z,4.17
2023-04-03T21:03:06.335Z,3.13
2023-04-03T21:08:46.381Z,3.85
2023-04-03T21:14:29.609Z,2.97
2023-04-03T21:19:32.124Z,2.60
2023-04-03T21:24:36.520Z,2.60
2023-04-03T21:29:42.424Z,2.93
2023-04-03T21:34:44.978Z,3.50
2023-04-03T21:39:47.595Z,3.20
2023-04-03T21:44:50.018Z,3.70
2023-04-03T21:49:52.689Z,3.42
2023-04-03T21:54:55.164Z,3.33
2023-04-03T21:59:57.793Z,3.20
2023-04-03T22:05:00.362Z,3.47
2023-04-03T22:10:03.078Z,3.40
2023-04-03T22:15:06.544Z,3.65
2023-04-03T22:20:09.871Z,3.50
2023-04-03T22:25:12.610Z,4.00
2023-04-03T22:30:15.298Z,4.10
2023-04-03T22:35:17.903Z,4.37
2023-04-03T22:40:20.419Z,4.35
2023-04-03T22:45:22.973Z,4.27
2023-04-03T22:50:25.513Z,4.65
2023-04-03T22:55:28.008Z,4.57
2023-04-03T23:00:30.843Z,4.80
2023-04-03T23:05:33.308Z,4.93
2023-04-03T23:10:56.282Z,4.97
2023-04-03T23:16:00.553Z,5.10
2023-04-03T23:21:04.243Z,4.97
2023-04-03T23:26:09.368Z,4.90
2023-04-03T23:31:12.082Z,5.22
2023-04-03T23:36:16.345Z,4.77
2023-04-03T23:41:18.855Z,4.90
2023-04-03T23:46:21.439Z,5.28
2023-04-03T23:51:24.026Z,6.23
2023-04-03T23:56:26.458Z,5.10
